createdAt,value
2023-06-07T00:00:42.366Z,49.50
2023-06-07T00:03:10.822Z,49.50
2023-06-07T00:05:38.459Z,49.50
2023-06-07T00:08:05.297Z,49.50
2023-06-07T00:10:34.154Z,49.50
2023-06-07T00:13:00.920Z,49.50
2023-06-07T00:15:27.539Z,49.50
2023-06-07T00:17:54.504Z,49.50
2023-06-07T00:20:21.207Z,49.40
2023-06-07T00:22:48.710Z,49.50
2023-06-07T00:25:15.481Z,49.40
2023-06-07T00:27:42.144Z,49.40
2023-06-07T00:30:09.063Z,49.40
2023-06-07T00:32:35.779Z,49.50
2023-06-07T00:35:02.396Z,49.50
2023-06-07T00:37:29.025Z,49.40
2023-06-07T00:39:55.679Z,49.40
2023-06-07T00:42:22.306Z,49.40
2023-06-07T00:44:49.036Z,49.40
2023-06-07T00:47:15.883Z,49.40
2023-06-07T00:49:43.487Z,49.40
2023-06-07T00:52:10.480Z,49.30
2023-06-07T00:54:37.245Z,49.40
2023-06-07T00:57:05.132Z,49.30
2023-06-07T00:59:32.126Z,49.40
2023-06-07T01:01:59.052Z,49.30
2023-06-07T01:04:25.761Z,49.40
2023-06-07T01:06:55.355Z,49.40
2023-06-07T01:09:22.831Z,49.30
2023-06-07T01:11:50.727Z,49.30
2023-06-07T01:14:18.433Z,49.30
2023-06-07T01:16:45.455Z,49.30
2023-06-07T01:19:22.270Z,49.30
2023-06-07T01:21:51.641Z,49.30
2023-06-07T01:24:19.601Z,49.30
2023-06-07T01:26:47.507Z,49.30
2023-06-07T01:29:16.679Z,49.30
2023-06-07T01:31:44.232Z,49.30
2023-06-07T01:34:12.407Z,49.40
2023-06-07T01:36:39.552Z,49.40
2023-06-07T01:39:06.845Z,49.40
2023-06-07T01:41:33.597Z,49.30
2023-06-07T01:44:01.167Z,49.40
2023-06-07T01:46:28.154Z,49.30
2023-06-07T01:48:55.048Z,49.30
2023-06-07T01:51:21.715Z,49.30
2023-06-07T01:53:50.050Z,49.40
2023-06-07T01:56:26.665Z,49.40
2023-06-07T01:58:58.726Z,49.40
2023-06-07T02:01:34.428Z,49.40
2023-06-07T02:04:03.237Z,49.40
2023-06-07T02:06:33.455Z,49.40
2023-06-07T02:09:07.275Z,49.40
2023-06-07T02:11:34.729Z,49.40
2023-06-07T02:14:01.420Z,49.40
2023-06-07T02:16:33.948Z,49.40
2023-06-07T02:19:00.649Z,49.50
2023-06-07T02:21:27.313Z,49.50
2023-06-07T02:23:54.167Z,49.50
2023-06-07T02:26:21.653Z,49.50
2023-06-07T02:28:48.302Z,49.50
2023-06-07T02:31:15.115Z,49.50
2023-06-07T02:33:41.746Z,49.50
2023-06-07T02:36:08.422Z,49.50
2023-06-07T02:38:35.074Z,49.40
2023-06-07T02:41:01.691Z,49.40
2023-06-07T02:43:28.234Z,49.40
2023-06-07T02:45:55.012Z,49.40
2023-06-07T02:48:21.839Z,49.40
2023-06-07T02:50:48.542Z,49.40
2023-06-07T02:53:15.220Z,49.40
2023-06-07T02:55:44.608Z,49.40
2023-06-07T02:58:11.216Z,49.30
2023-06-07T03:00:38.664Z,49.30
2023-06-07T03:03:06.529Z,49.40
2023-06-07T03:05:33.884Z,49.30
2023-06-07T03:08:01.299Z,49.40
2023-06-07T03:10:27.981Z,49.30
2023-06-07T03:12:54.639Z,49.30
2023-06-07T03:15:21.890Z,49.40
2023-06-07T03:17:48.746Z,49.30
2023-06-07T03:20:15.440Z,49.30
2023-06-07T03:22:42.446Z,49.30
2023-06-07T03:25:10.107Z,49.30
2023-06-07T03:27:36.853Z,49.30
2023-06-07T03:30:04.446Z,49.30
2023-06-07T03:32:31.320Z,49.30
2023-06-07T03:34:57.933Z,49.30
2023-06-07T03:37:24.556Z,49.30
2023-06-07T03:39:51.168Z,49.30
2023-06-07T03:42:17.753Z,49.30
2023-06-07T03:44:44.532Z,49.30
2023-06-07T03:47:11.197Z,49.30
2023-06-07T03:49:37.805Z,49.30
2023-06-07T03:52:04.601Z,49.30
2023-06-07T03:54:31.345Z,49.30
2023-06-07T03:56:58.499Z,49.20
2023-06-07T03:59:27.057Z,49.30
2023-06-07T04:01:53.710Z,49.20
2023-06-07T04:04:20.576Z,49.20
2023-06-07T04:06:47.300Z,49.20
2023-06-07T04:09:16.672Z,49.20
2023-06-07T04:11:43.289Z,49.20
2023-06-07T04:14:09.902Z,49.20
2023-06-07T04:16:36.522Z,49.20
2023-06-07T04:19:03.173Z,49.20
2023-06-07T04:21:29.800Z,49.20
2023-06-07T04:26:23.917Z,49.10
2023-06-07T04:28:50.928Z,49.10
2023-06-07T04:31:17.573Z,49.10
2023-06-07T04:33:46.824Z,49.10
2023-06-07T04:36:15.535Z,49.10
2023-06-07T04:38:53.910Z,49.10
2023-06-07T04:41:31.882Z,49.10
2023-06-07T04:43:59.861Z,49.10
2023-06-07T04:46:27.660Z,49.10
2023-06-07T04:48:54.456Z,49.10
2023-06-07T04:51:21.975Z,49.10
2023-06-07T04:53:49.124Z,49.00
2023-06-07T04:56:15.780Z,49.00
2023-06-07T04:58:42.420Z,49.00
2023-06-07T05:01:12.284Z,49.00
2023-06-07T05:03:42.898Z,49.00
2023-06-07T05:06:09.842Z,49.00
2023-06-07T05:08:36.701Z,49.00
2023-06-07T05:11:03.566Z,49.00
2023-06-07T05:13:30.184Z,49.00
2023-06-07T05:15:56.802Z,49.00
2023-06-07T05:18:24.670Z,49.00
2023-06-07T05:20:51.251Z,49.00
2023-06-07T05:23:18.218Z,49.00
2023-06-07T05:25:45.461Z,49.00
2023-06-07T05:28:13.805Z,49.00
2023-06-07T05:30:40.936Z,49.00
2023-06-07T05:33:08.201Z,48.90
2023-06-07T05:35:34.932Z,48.90
2023-06-07T05:38:02.318Z,48.90
2023-06-07T05:40:29.126Z,48.90
2023-06-07T05:42:57.522Z,48.90
2023-06-07T05:45:24.604Z,48.90
2023-06-07T05:47:51.677Z,48.90
2023-06-07T05:50:20.662Z,48.80
2023-06-07T05:52:51.737Z,48.90
2023-06-07T05:55:18.352Z,48.90
2023-06-07T05:57:44.946Z,48.90
2023-06-07T06:00:12.369Z,48.90
2023-06-07T06:02:39.816Z,48.90
2023-06-07T06:05:07.462Z,48.90
2023-06-07T06:07:34.268Z,48.90
2023-06-07T06:10:00.975Z,48.90
2023-06-07T06:12:27.558Z,48.90
2023-06-07T06:14:54.182Z,49.00
2023-06-07T06:17:21.148Z,48.90
2023-06-07T06:19:47.812Z,49.00
2023-06-07T06:22:14.578Z,48.90
2023-06-07T06:24:41.186Z,48.90
2023-06-07T06:27:09.321Z,48.90
2023-06-07T06:29:36.234Z,48.90
2023-06-07T06:32:02.859Z,48.90
2023-06-07T06:34:32.503Z,48.90
2023-06-07T06:36:59.309Z,48.90
2023-06-07T06:39:26.507Z,48.90
2023-06-07T06:41:53.355Z,48.90
2023-06-07T06:44:20.158Z,48.90
2023-06-07T06:46:46.779Z,48.90
2023-06-07T06:49:13.792Z,48.80
2023-06-07T06:51:43.286Z,48.90
2023-06-07T06:54:11.966Z,48.80
2023-06-07T06:56:38.644Z,48.80
2023-06-07T06:59:05.212Z,48.80
2023-06-07T07:01:45.412Z,48.80
2023-06-07T07:04:12.466Z,48.80
2023-06-07T07:06:39.379Z,48.80
2023-06-07T07:09:05.983Z,48.80
2023-06-07T07:11:32.816Z,48.70
2023-06-07T07:13:59.631Z,48.70
2023-06-07T07:16:26.393Z,48.70
2023-06-07T07:18:53.080Z,48.70
2023-06-07T07:21:19.748Z,48.70
2023-06-07T07:23:47.309Z,48.70
2023-06-07T07:26:13.964Z,48.70
2023-06-07T07:28:40.565Z,48.80
2023-06-07T07:31:07.639Z,48.80
2023-06-07T07:33:34.310Z,48.80
2023-06-07T07:36:04.001Z,48.70
2023-06-07T07:38:34.063Z,48.70
2023-06-07T07:41:01.121Z,48.80
2023-06-07T07:43:29.817Z,48.80
2023-06-07T07:45:59.326Z,48.80
2023-06-07T07:48:25.997Z,48.80
2023-06-07T07:50:52.627Z,48.70
2023-06-07T07:53:19.405Z,48.80
2023-06-07T07:55:46.098Z,48.80
2023-06-07T07:58:12.729Z,48.80
2023-06-07T08:00:40.501Z,48.70
2023-06-07T08:03:07.161Z,48.80
2023-06-07T08:05:33.789Z,48.70
2023-06-07T08:08:01.720Z,48.70
2023-06-07T08:10:28.332Z,48.90
2023-06-07T08:12:54.937Z,49.00
2023-06-07T08:15:21.741Z,49.20
2023-06-07T08:17:50.625Z,49.20
2023-06-07T08:20:18.503Z,49.10
2023-06-07T08:22:45.187Z,49.10
2023-06-07T08:25:11.898Z,49.10
2023-06-07T08:27:38.848Z,49.00
2023-06-07T08:30:07.702Z,48.90
2023-06-07T08:32:34.818Z,48.90
2023-06-07T08:35:01.814Z,48.90
2023-06-07T08:37:28.434Z,48.80
2023-06-07T08:39:55.102Z,48.80
2023-06-07T08:42:21.696Z,48.80
2023-06-07T08:44:48.316Z,48.70
2023-06-07T08:47:15.303Z,48.70
2023-06-07T08:49:43.769Z,48.70
2023-06-07T08:52:16.451Z,48.60
2023-06-07T08:54:44.488Z,48.60
2023-06-07T08:57:11.871Z,48.60
2023-06-07T08:59:39.005Z,48.60
2023-06-07T09:02:05.697Z,48.60
2023-06-07T09:04:34.376Z,48.60
2023-06-07T09:07:01.609Z,48.60
2023-06-07T09:09:28.198Z,48.60
2023-06-07T09:11:54.877Z,48.50
2023-06-07T09:14:22.159Z,48.50
2023-06-07T09:16:55.847Z,48.50
2023-06-07T09:19:38.395Z,48.50
2023-06-07T09:22:05.711Z,48.50
2023-06-07T09:24:32.572Z,48.50
2023-06-07T09:27:02.104Z,48.50
2023-06-07T09:29:30.251Z,48.50
2023-06-07T09:31:57.647Z,48.70
2023-06-07T09:34:27.935Z,48.70
2023-06-07T09:36:59.261Z,48.60
2023-06-07T09:39:27.336Z,48.70
2023-06-07T09:41:55.397Z,48.60
2023-06-07T09:44:26.415Z,48.60
2023-06-07T09:46:53.729Z,48.60
2023-06-07T09:49:24.107Z,48.60
2023-06-07T09:51:52.455Z,48.60
2023-06-07T09:54:20.620Z,48.60
2023-06-07T09:56:47.309Z,48.60
2023-06-07T09:59:15.054Z,48.50
2023-06-07T10:01:47.037Z,48.50
2023-06-07T10:04:14.167Z,48.50
2023-06-07T10:06:45.026Z,48.50
2023-06-07T10:09:12.833Z,48.50
2023-06-07T10:11:42.537Z,48.50
2023-06-07T10:14:13.206Z,48.50
2023-06-07T10:16:43.789Z,48.50
2023-06-07T10:19:21.894Z,48.50
2023-06-07T10:21:50.357Z,48.50
2023-06-07T10:24:25.657Z,48.50
2023-06-07T10:26:55.121Z,48.50
2023-06-07T10:29:29.441Z,48.50
2023-06-07T10:32:01.746Z,48.50
2023-06-07T10:34:29.642Z,48.50
2023-06-07T10:36:57.784Z,48.50
2023-06-07T10:39:24.405Z,48.50
2023-06-07T10:41:51.807Z,48.50
2023-06-07T10:44:18.443Z,48.50
2023-06-07T10:46:45.109Z,48.50
2023-06-07T10:49:31.674Z,48.50
2023-06-07T10:52:05.005Z,48.50
2023-06-07T10:54:32.326Z,48.40
2023-06-07T10:57:00.782Z,48.50
2023-06-07T10:59:27.666Z,48.40
2023-06-07T11:01:55.865Z,48.40
2023-06-07T11:04:41.333Z,48.40
2023-06-07T11:07:22.389Z,48.40
2023-06-07T11:10:01.578Z,48.40
2023-06-07T11:12:34.084Z,48.40
2023-06-07T11:15:21.419Z,48.30
2023-06-07T11:18:01.758Z,48.30
2023-06-07T11:20:40.975Z,48.20
2023-06-07T11:23:23.448Z,48.20
2023-06-07T11:25:52.434Z,48.20
2023-06-07T11:28:29.332Z,48.20
2023-06-07T11:30:56.853Z,48.20
2023-06-07T11:33:26.484Z,48.20
2023-06-07T11:35:53.826Z,48.20
2023-06-07T11:38:20.746Z,48.20
2023-06-07T11:40:47.676Z,48.20
2023-06-07T11:43:15.125Z,48.20
2023-06-07T11:45:42.354Z,48.20
2023-06-07T11:48:09.582Z,48.20
2023-06-07T11:50:37.118Z,48.20
2023-06-07T11:53:04.016Z,48.20
2023-06-07T11:55:30.664Z,48.20
2023-06-07T11:57:57.959Z,48.20
2023-06-07T12:00:24.671Z,48.30
2023-06-07T12:02:52.502Z,48.20
2023-06-07T12:05:19.548Z,48.20
2023-06-07T12:07:54.405Z,48.20
2023-06-07T12:10:24.241Z,48.20
2023-06-07T12:13:13.025Z,48.20
2023-06-07T12:15:42.843Z,48.20
2023-06-07T12:18:15.531Z,48.20
2023-06-07T12:20:43.530Z,48.20
2023-06-07T12:23:11.711Z,48.20
2023-06-07T12:25:38.769Z,48.20
2023-06-07T12:28:13.338Z,48.10
2023-06-07T12:30:41.828Z,48.20
2023-06-07T12:33:16.281Z,48.20
2023-06-07T12:35:49.391Z,48.20
2023-06-07T12:38:16.123Z,48.20
2023-06-07T12:40:42.873Z,48.20
2023-06-07T12:43:09.663Z,48.20
2023-06-07T12:45:36.532Z,48.30
2023-06-07T12:48:03.489Z,48.30
2023-06-07T12:50:30.141Z,48.30
2023-06-07T12:52:57.008Z,48.30
2023-06-07T12:55:23.781Z,48.30
2023-06-07T12:57:50.435Z,48.30
2023-06-07T13:00:17.480Z,48.30
2023-06-07T13:02:44.726Z,48.30
2023-06-07T13:05:12.256Z,48.30
2023-06-07T13:07:39.454Z,48.40
2023-06-07T13:10:07.190Z,48.30
2023-06-07T13:12:34.675Z,48.30
2023-06-07T13:15:01.380Z,48.40
2023-06-07T13:17:28.253Z,48.40
2023-06-07T13:19:55.042Z,48.40
2023-06-07T13:22:21.660Z,48.40
2023-06-07T13:24:48.342Z,48.40
2023-06-07T13:27:15.037Z,48.30
2023-06-07T13:29:42.404Z,48.40
2023-06-07T13:32:09.368Z,48.40
2023-06-07T13:34:36.261Z,48.40
2023-06-07T13:37:02.877Z,48.40
2023-06-07T13:39:29.559Z,48.40
2023-06-07T13:41:56.723Z,48.30
2023-06-07T13:44:23.405Z,48.30
2023-06-07T13:46:51.167Z,48.20
2023-06-07T13:49:19.227Z,48.30
2023-06-07T13:51:46.279Z,48.30
2023-06-07T13:54:13.303Z,48.40
2023-06-07T13:56:40.060Z,48.40
2023-06-07T13:59:06.720Z,48.50
2023-06-07T14:01:33.474Z,48.60
2023-06-07T14:04:00.570Z,48.60
2023-06-07T14:06:28.289Z,48.70
2023-06-07T14:08:55.040Z,48.70
2023-06-07T14:11:22.974Z,48.60
2023-06-07T14:13:49.721Z,48.60
2023-06-07T14:16:16.669Z,48.70
2023-06-07T14:18:43.410Z,48.70
2023-06-07T14:21:10.044Z,48.70
2023-06-07T14:23:36.674Z,48.70
2023-06-07T14:26:03.374Z,48.70
2023-06-07T14:28:30.046Z,48.70
2023-06-07T14:30:56.745Z,48.70
2023-06-07T14:33:23.602Z,48.70
2023-06-07T14:35:50.374Z,48.70
2023-06-07T14:38:17.025Z,48.70
2023-06-07T14:40:43.774Z,48.60
2023-06-07T14:43:10.378Z,48.70
2023-06-07T14:45:36.987Z,48.80
2023-06-07T14:48:06.163Z,48.80
2023-06-07T14:50:33.333Z,48.80
2023-06-07T14:53:00.170Z,48.90
2023-06-07T14:55:26.857Z,48.80
2023-06-07T14:57:54.600Z,48.80
2023-06-07T15:00:21.798Z,48.80
2023-06-07T15:02:48.533Z,48.90
2023-06-07T15:05:15.212Z,48.90
2023-06-07T15:07:41.851Z,49.00
2023-06-07T15:10:08.884Z,49.10
2023-06-07T15:12:35.928Z,49.00
2023-06-07T15:15:02.849Z,49.00
2023-06-07T15:17:29.548Z,48.90
2023-06-07T15:19:56.209Z,49.00
2023-06-07T15:22:22.815Z,49.00
2023-06-07T15:24:49.935Z,49.00
2023-06-07T15:27:16.743Z,49.00
2023-06-07T15:29:43.437Z,49.00
2023-06-07T15:32:10.283Z,49.00
2023-06-07T15:34:37.263Z,48.90
2023-06-07T15:37:04.053Z,48.90
2023-06-07T15:39:30.821Z,48.80
2023-06-07T15:41:57.503Z,48.80
2023-06-07T15:44:24.163Z,48.80
2023-06-07T15:46:50.868Z,48.80
2023-06-07T15:49:18.210Z,48.70
2023-06-07T15:51:45.068Z,48.70
2023-06-07T15:54:11.838Z,48.70
2023-06-07T15:56:39.633Z,48.60
2023-06-07T15:59:06.537Z,48.70
2023-06-07T16:01:33.526Z,48.70
2023-06-07T16:04:00.418Z,48.60
2023-06-07T16:06:27.126Z,48.60
2023-06-07T16:08:54.005Z,48.50
2023-06-07T16:11:20.725Z,48.50
2023-06-07T16:13:47.449Z,48.50
2023-06-07T16:16:14.471Z,48.50
2023-06-07T16:18:41.235Z,48.40
2023-06-07T16:21:07.933Z,48.40
2023-06-07T16:23:35.095Z,48.40
2023-06-07T16:26:01.825Z,48.40
2023-06-07T16:28:28.504Z,48.50
2023-06-07T16:30:55.222Z,48.60
2023-06-07T16:33:21.880Z,48.60
2023-06-07T16:35:48.517Z,48.70
2023-06-07T16:38:15.214Z,48.70
2023-06-07T16:40:41.822Z,48.80
2023-06-07T16:43:08.787Z,48.90
2023-06-07T16:45:35.488Z,48.90
2023-06-07T16:48:02.321Z,48.90
2023-06-07T16:50:28.978Z,49.00
2023-06-07T16:52:55.728Z,49.00
2023-06-07T16:55:22.411Z,49.00
2023-06-07T16:57:49.107Z,49.10
2023-06-07T17:00:15.984Z,49.10
2023-06-07T17:02:42.775Z,49.20
2023-06-07T17:05:09.744Z,49.20
2023-06-07T17:07:36.518Z,49.20
2023-06-07T17:10:03.775Z,49.30
2023-06-07T17:12:31.514Z,49.30
2023-06-07T17:14:58.207Z,49.30
2023-06-07T17:17:25.677Z,49.40
2023-06-07T17:19:52.451Z,49.40
2023-06-07T17:22:19.066Z,49.50
2023-06-07T17:24:45.681Z,49.50
2023-06-07T17:27:12.364Z,49.50
2023-06-07T17:29:39.032Z,49.60
2023-06-07T17:32:06.510Z,49.60
2023-06-07T17:34:33.288Z,49.60
2023-06-07T17:36:59.960Z,49.70
2023-06-07T17:39:26.608Z,49.70
2023-06-07T17:41:53.365Z,49.80
2023-06-07T17:44:20.112Z,49.80
2023-06-07T17:46:49.427Z,49.80
2023-06-07T17:49:16.322Z,49.80
2023-06-07T17:51:43.041Z,49.80
2023-06-07T17:54:09.730Z,49.90
2023-06-07T17:56:36.802Z,49.90
2023-06-07T17:59:03.575Z,50.00
2023-06-07T18:01:30.371Z,50.00
2023-06-07T18:03:58.593Z,50.00
2023-06-07T18:06:26.022Z,50.00
2023-06-07T18:08:53.548Z,50.00
2023-06-07T18:11:20.376Z,50.10
2023-06-07T18:13:47.176Z,50.10
2023-06-07T18:16:14.488Z,50.10
2023-06-07T18:18:41.244Z,50.20
2023-06-07T18:21:10.604Z,50.20
2023-06-07T18:23:37.622Z,50.30
2023-06-07T18:26:04.886Z,50.20
2023-06-07T18:28:31.665Z,50.20
2023-06-07T18:30:58.707Z,50.20
2023-06-07T18:33:27.499Z,50.20
2023-06-07T18:35:54.256Z,50.20
2023-06-07T18:38:21.159Z,50.20
2023-06-07T18:40:47.937Z,50.10
2023-06-07T18:43:14.648Z,50.00
2023-06-07T18:45:41.451Z,50.10
2023-06-07T18:48:08.341Z,50.10
2023-06-07T18:50:34.998Z,50.10
2023-06-07T18:53:03.194Z,50.10
2023-06-07T18:55:29.934Z,50.10
2023-06-07T18:57:56.550Z,50.20
2023-06-07T19:00:23.262Z,50.10
2023-06-07T19:02:49.980Z,50.10
2023-06-07T19:05:16.824Z,50.10
2023-06-07T19:07:43.768Z,50.10
2023-06-07T19:10:10.823Z,50.10
2023-06-07T19:12:37.513Z,50.10
2023-06-07T19:15:04.857Z,50.10
2023-06-07T19:17:31.969Z,50.10
2023-06-07T19:20:00.616Z,50.10
2023-06-07T19:22:27.553Z,50.10
2023-06-07T19:24:54.245Z,50.10
2023-06-07T19:27:22.369Z,50.10
2023-06-07T19:29:49.403Z,50.10
2023-06-07T19:32:16.094Z,50.00
2023-06-07T19:34:44.299Z,50.10
2023-06-07T19:37:12.403Z,50.00
2023-06-07T19:39:39.257Z,50.10
2023-06-07T19:42:07.653Z,50.10
2023-06-07T19:44:36.934Z,50.00
2023-06-07T19:47:04.903Z,50.00
2023-06-07T19:49:31.557Z,50.00
2023-06-07T19:51:58.297Z,50.00
2023-06-07T19:54:26.180Z,50.00
2023-06-07T19:56:52.859Z,50.00
2023-06-07T19:59:19.631Z,50.00
2023-06-07T20:01:47.164Z,50.00
2023-06-07T20:04:13.922Z,50.00
2023-06-07T20:06:40.689Z,50.00
2023-06-07T20:09:08.417Z,50.00
2023-06-07T20:11:35.125Z,50.00
2023-06-07T20:14:01.854Z,50.00
2023-06-07T20:16:28.878Z,49.90
2023-06-07T20:18:55.993Z,50.00
2023-06-07T20:21:22.781Z,49.90
2023-06-07T20:23:49.568Z,49.90
2023-06-07T20:26:17.345Z,49.90
2023-06-07T20:28:43.979Z,49.90
2023-06-07T20:31:10.665Z,50.00
2023-06-07T20:33:37.296Z,49.90
2023-06-07T20:36:04.163Z,49.90
2023-06-07T20:38:30.816Z,50.00
2023-06-07T20:40:57.444Z,49.90
2023-06-07T20:43:24.162Z,50.00
2023-06-07T20:45:50.944Z,50.00
2023-06-07T20:48:17.624Z,50.00
2023-06-07T20:50:45.055Z,50.00
2023-06-07T20:53:11.787Z,50.00
2023-06-07T20:55:38.436Z,50.00
2023-06-07T20:58:05.103Z,50.00
2023-06-07T21:00:32.149Z,50.00
2023-06-07T21:02:58.898Z,50.00
2023-06-07T21:05:26.818Z,50.10
2023-06-07T21:07:53.441Z,50.00
2023-06-07T21:10:20.123Z,50.10
2023-06-07T21:12:46.917Z,50.10
2023-06-07T21:15:13.586Z,50.10
2023-06-07T21:17:40.574Z,50.10
2023-06-07T21:20:09.240Z,50.10
2023-06-07T21:22:36.019Z,50.10
2023-06-07T21:25:02.940Z,50.10
2023-06-07T21:27:32.335Z,50.10
2023-06-07T21:29:59.300Z,50.10
2023-06-07T21:32:27.707Z,50.00
2023-06-07T21:34:54.574Z,50.10
2023-06-07T21:37:21.332Z,50.00
2023-06-07T21:39:48.017Z,50.10
2023-06-07T21:42:14.818Z,50.10
2023-06-07T21:44:41.500Z,50.10
2023-06-07T21:47:08.167Z,50.10
2023-06-07T21:49:34.787Z,50.10
2023-06-07T21:52:01.423Z,50.10
2023-06-07T21:54:28.839Z,50.10
2023-06-07T21:56:55.679Z,50.10
2023-06-07T21:59:23.121Z,50.00
2023-06-07T22:01:50.888Z,50.00
2023-06-07T22:04:17.652Z,50.00
2023-06-07T22:06:44.491Z,50.00
2023-06-07T22:09:11.286Z,50.00
2023-06-07T22:11:40.951Z,50.00
2023-06-07T22:14:08.886Z,50.00
2023-06-07T22:16:35.862Z,50.00
2023-06-07T22:19:02.758Z,50.00
2023-06-07T22:21:30.972Z,50.00
2023-06-07T22:23:58.990Z,50.00
2023-06-07T22:26:30.536Z,50.00
2023-06-07T22:29:01.226Z,50.00
2023-06-07T22:31:30.238Z,50.00
2023-06-07T22:33:57.113Z,50.00
2023-06-07T22:36:32.548Z,50.00
2023-06-07T22:39:00.380Z,50.00
2023-06-07T22:41:28.305Z,49.90
2023-06-07T22:43:56.806Z,49.90
2023-06-07T22:46:23.908Z,49.90
2023-06-07T22:48:51.896Z,49.80
2023-06-07T22:51:20.952Z,49.80
2023-06-07T22:53:48.719Z,49.80
2023-06-07T22:56:15.667Z,49.80
2023-06-07T22:58:42.520Z,49.80
2023-06-07T23:01:09.805Z,49.80
2023-06-07T23:03:36.814Z,49.80
2023-06-07T23:06:03.553Z,49.80
2023-06-07T23:08:30.338Z,49.70
2023-06-07T23:10:57.109Z,49.70
2023-06-07T23:13:23.805Z,49.70
2023-06-07T23:15:52.506Z,49.70
2023-06-07T23:18:19.139Z,49.70
2023-06-07T23:20:46.547Z,49.70
2023-06-07T23:23:17.525Z,49.70
2023-06-07T23:25:44.837Z,49.70
2023-06-07T23:28:11.804Z,49.70
2023-06-07T23:30:38.625Z,49.70
2023-06-07T23:33:06.237Z,49.70
2023-06-07T23:35:32.994Z,49.70
2023-06-07T23:37:59.678Z,49.70
2023-06-07T23:40:26.312Z,49.60
2023-06-07T23:42:53.313Z,49.60
2023-06-07T23:45:22.134Z,49.60
2023-06-07T23:47:48.988Z,49.60
2023-06-07T23:50:15.822Z,49.60
2023-06-07T23:52:42.533Z,49.60
2023-06-07T23:55:10.316Z,49.60
2023-06-07T23:57:37.062Z,49.50
